Terminal Aerodrome Forecast
Issued by NWS

Home | Current Version | Previous Version | Text Only | Print | Product List | Glossary On
Versions: 1 2 3 4 5 6 7 8 9 10 11 12 13 14 15 16 17 18 19 20 21
000
FTUS43 KIND 261100
TAFBMG
TAF
KBMG 261121Z 2612/2712 21008KT P6SM SCT250
     FM261400 19010G18KT P6SM BKN200
     FM270000 18008KT P6SM BKN040 BKN200
      AMD LTD TO CLD VIS AND WIND TIL 261400=

USA.gov is the U.S. government's official web portal to all federal, state and local government web resources and services.